Terminal Aerodrome Forecast
Issued by NWS

Home | Current Version | Previous Version | Graphics & Text | Print | Product List | Glossary On
Versions: 1 2 3 4 5 6 7 8 9 10 11 12 13 14 15 16 17 18
572
FTUS43 KIWX 061731
TAFSBN
TAF
KSBN 061731Z 0618/0718 VRB04KT P6SM OVC080
     FM062100 27009KT P6SM OVC025
      TEMPO 0622/0702 OVC015
     FM070200 26011KT P6SM SCT030 BKN150=

USA.gov is the U.S. government's official web portal to all federal, state and local government web resources and services.